createdAt,value
2023-01-03T00:00:45.053Z,1.79
2023-01-03T00:03:49.613Z,1.78
2023-01-03T00:06:54.746Z,1.76
2023-01-03T00:09:59.297Z,1.73
2023-01-03T00:13:03.799Z,1.73
2023-01-03T00:16:16.021Z,1.77
2023-01-03T00:19:20.681Z,1.73
2023-01-03T00:22:25.431Z,1.67
2023-01-03T00:25:30.110Z,1.65
2023-01-03T00:28:34.724Z,1.62
2023-01-03T00:31:39.870Z,1.61
2023-01-03T00:34:45.016Z,1.60
2023-01-03T00:37:49.619Z,1.59
2023-01-03T00:40:54.204Z,1.57
2023-01-03T00:43:58.746Z,1.56
2023-01-03T00:47:03.721Z,1.58
2023-01-03T00:50:08.592Z,1.59
2023-01-03T00:53:13.079Z,1.58
2023-01-03T00:56:18.527Z,1.57
2023-01-03T00:59:23.170Z,1.55
2023-01-03T01:02:27.903Z,1.54
2023-01-03T01:05:32.460Z,1.56
2023-01-03T01:08:37.018Z,1.59
2023-01-03T01:11:41.736Z,1.60
2023-01-03T01:14:46.281Z,1.61
2023-01-03T01:17:50.785Z,1.63
2023-01-03T01:20:55.420Z,1.66
2023-01-03T01:24:00.733Z,1.67
2023-01-03T01:27:05.526Z,1.62
2023-01-03T01:30:10.743Z,1.60
2023-01-03T01:33:15.289Z,1.60
2023-01-03T01:36:21.077Z,1.61
2023-01-03T01:39:26.434Z,1.64
2023-01-03T01:42:48.299Z,1.63
2023-01-03T01:45:53.157Z,1.59
2023-01-03T01:48:58.572Z,1.56
2023-01-03T01:52:04.174Z,1.56
2023-01-03T01:55:13.175Z,1.53
2023-01-03T01:58:17.976Z,1.49
2023-01-03T02:01:23.946Z,1.39
2023-01-03T02:04:30.612Z,1.34
2023-01-03T02:07:35.916Z,1.36
2023-01-03T02:10:51.989Z,1.35
2023-01-03T02:14:04.020Z,1.31
2023-01-03T02:17:11.952Z,1.29
2023-01-03T02:20:22.289Z,1.27
2023-01-03T02:23:46.000Z,1.18
2023-01-03T02:26:54.699Z,1.12
2023-01-03T02:30:19.022Z,1.09
2023-01-03T02:33:29.801Z,1.07
2023-01-03T02:36:38.743Z,1.07
2023-01-03T02:39:47.667Z,1.09
2023-01-03T02:43:01.264Z,1.09
2023-01-03T02:46:08.700Z,1.08
2023-01-03T02:49:14.809Z,1.08
2023-01-03T02:52:20.949Z,1.09
2023-01-03T02:55:27.421Z,1.10
2023-01-03T02:58:32.871Z,1.08
2023-01-03T03:01:38.299Z,1.07
2023-01-03T03:04:44.257Z,1.08
2023-01-03T03:07:48.787Z,1.09
2023-01-03T03:11:11.943Z,1.07
2023-01-03T03:14:19.792Z,1.07
2023-01-03T03:17:29.508Z,1.08
2023-01-03T03:20:51.201Z,1.10
2023-01-03T03:24:15.292Z,1.10
2023-01-03T03:27:40.535Z,1.08
2023-01-03T03:30:46.082Z,1.08
2023-01-03T03:33:52.918Z,1.09
2023-01-03T03:37:00.604Z,1.09
2023-01-03T03:40:23.688Z,1.11
2023-01-03T03:43:48.283Z,1.13
2023-01-03T03:46:57.111Z,1.16
2023-01-03T03:50:03.277Z,1.18
2023-01-03T03:53:09.447Z,1.18
2023-01-03T03:56:16.615Z,1.22
2023-01-03T03:59:22.501Z,1.24
2023-01-03T04:02:27.599Z,1.26
2023-01-03T04:05:34.140Z,1.30
2023-01-03T04:08:38.691Z,1.35
2023-01-03T04:11:43.445Z,1.38
2023-01-03T04:14:47.984Z,1.41
2023-01-03T04:17:52.517Z,1.40
2023-01-03T04:20:57.522Z,1.40
2023-01-03T04:24:02.086Z,1.49
2023-01-03T04:27:06.556Z,1.71
2023-01-03T04:30:12.611Z,1.99
2023-01-03T04:33:17.405Z,2.35
2023-01-03T04:36:22.012Z,2.73
2023-01-03T04:39:26.539Z,3.23
2023-01-03T04:42:48.772Z,3.73
2023-01-03T04:45:53.441Z,4.27
2023-01-03T04:48:57.955Z,4.63
2023-01-03T04:52:02.417Z,4.93
2023-01-03T04:55:07.600Z,5.22
2023-01-03T04:58:12.071Z,5.44
2023-01-03T05:01:16.630Z,5.63
2023-01-03T05:04:21.182Z,5.79
2023-01-03T05:07:25.686Z,5.96
2023-01-03T05:10:30.319Z,6.13
2023-01-03T05:13:35.292Z,6.27
2023-01-03T05:16:39.919Z,6.41
2023-01-03T05:19:58.247Z,6.51
2023-01-03T05:23:20.371Z,6.58
2023-01-03T05:26:24.908Z,6.68
2023-01-03T05:29:30.447Z,6.79
2023-01-03T05:32:35.111Z,6.87
2023-01-03T05:35:39.608Z,6.95
2023-01-03T05:38:44.119Z,7.05
2023-01-03T05:42:00.843Z,7.14
2023-01-03T05:45:05.653Z,7.17
2023-01-03T05:48:10.732Z,7.22
2023-01-03T05:51:15.239Z,7.28
2023-01-03T05:54:21.315Z,7.32
2023-01-03T05:57:30.535Z,7.37
2023-01-03T06:00:39.540Z,7.42
2023-01-03T06:03:46.422Z,7.45
2023-01-03T06:06:51.066Z,7.49
2023-01-03T06:09:55.543Z,7.53
2023-01-03T06:13:00.012Z,7.56
2023-01-03T06:16:26.758Z,7.58
2023-01-03T06:19:31.249Z,7.60
2023-01-03T06:22:36.218Z,7.61
2023-01-03T06:25:40.723Z,7.63
2023-01-03T06:28:45.532Z,7.66
2023-01-03T06:31:50.039Z,7.67
2023-01-03T06:34:54.491Z,7.70
2023-01-03T06:37:58.976Z,7.72
2023-01-03T06:41:03.888Z,7.73
2023-01-03T06:44:08.372Z,7.73
2023-01-03T06:47:30.346Z,7.72
2023-01-03T06:50:51.945Z,7.71
2023-01-03T06:53:56.493Z,7.71
2023-01-03T06:57:01.361Z,7.71
2023-01-03T07:00:06.797Z,7.71
2023-01-03T07:03:11.897Z,7.71
2023-01-03T07:06:16.646Z,7.71
2023-01-03T07:09:21.154Z,7.72
2023-01-03T07:12:43.207Z,7.73
2023-01-03T07:15:48.103Z,7.76
2023-01-03T07:18:55.338Z,7.77
2023-01-03T07:22:00.228Z,7.77
2023-01-03T07:25:04.727Z,7.78
2023-01-03T07:28:11.065Z,7.80
2023-01-03T07:31:15.923Z,7.80
2023-01-03T07:34:20.640Z,7.81
2023-01-03T07:37:25.216Z,7.83
2023-01-03T07:40:30.154Z,7.84
2023-01-03T07:43:40.563Z,7.86
2023-01-03T07:46:45.275Z,7.87
2023-01-03T07:49:49.882Z,7.87
2023-01-03T07:52:54.533Z,7.89
2023-01-03T07:56:09.126Z,7.90
2023-01-03T07:59:17.276Z,7.92
2023-01-03T08:02:21.953Z,7.96
2023-01-03T08:05:27.159Z,8.01
2023-01-03T08:08:31.720Z,8.06
2023-01-03T08:11:53.952Z,8.10
2023-01-03T08:14:58.562Z,8.14
2023-01-03T08:18:03.921Z,8.18
2023-01-03T08:21:08.963Z,8.21
2023-01-03T08:24:13.531Z,8.23
2023-01-03T08:27:18.020Z,8.24
2023-01-03T08:30:22.694Z,8.26
2023-01-03T08:33:28.048Z,8.28
2023-01-03T08:36:34.855Z,8.31
2023-01-03T08:39:42.781Z,8.34
2023-01-03T08:42:47.944Z,8.39
2023-01-03T08:45:52.437Z,8.42
2023-01-03T08:48:57.513Z,8.45
2023-01-03T08:52:01.977Z,8.47
2023-01-03T08:55:08.323Z,8.48
2023-01-03T08:58:12.979Z,8.50
2023-01-03T09:01:17.802Z,8.52
2023-01-03T09:04:22.585Z,8.53
2023-01-03T09:07:27.092Z,8.53
2023-01-03T09:10:31.713Z,8.54
2023-01-03T09:13:36.703Z,8.55
2023-01-03T09:16:47.007Z,8.55
2023-01-03T09:19:53.501Z,8.53
2023-01-03T09:22:58.022Z,8.50
2023-01-03T09:26:02.782Z,8.47
2023-01-03T09:29:07.327Z,8.46
2023-01-03T09:32:11.938Z,8.45
2023-01-03T09:35:16.710Z,8.45
2023-01-03T09:38:21.447Z,8.44
2023-01-03T09:41:26.967Z,8.45
2023-01-03T09:44:31.495Z,8.46
2023-01-03T09:47:37.375Z,8.47
2023-01-03T09:51:15.787Z,8.48
2023-01-03T09:54:29.325Z,8.52
2023-01-03T09:57:53.230Z,8.52
2023-01-03T10:01:19.118Z,8.53
2023-01-03T10:04:36.012Z,8.57
2023-01-03T10:07:49.650Z,8.62
2023-01-03T10:11:02.123Z,8.67
2023-01-03T10:14:13.071Z,8.72
2023-01-03T10:17:22.049Z,8.79
2023-01-03T10:20:33.433Z,8.88
2023-01-03T10:23:38.830Z,8.95
2023-01-03T10:26:43.462Z,9.04
2023-01-03T10:29:49.262Z,9.09
2023-01-03T10:33:10.227Z,9.13
2023-01-03T10:36:15.422Z,9.14
2023-01-03T10:39:29.869Z,9.13
2023-01-03T10:42:35.293Z,9.09
2023-01-03T10:45:51.353Z,9.08
2023-01-03T10:49:26.520Z,9.09
2023-01-03T10:52:23.993Z,9.12
2023-01-03T10:55:28.836Z,9.17
2023-01-03T10:58:36.526Z,9.22
2023-01-03T11:01:41.509Z,9.25
2023-01-03T11:04:46.186Z,9.25
2023-01-03T11:07:54.733Z,9.25
2023-01-03T11:10:59.976Z,9.25
2023-01-03T11:14:11.940Z,9.28
2023-01-03T11:17:17.648Z,9.31
2023-01-03T11:20:22.738Z,9.30
2023-01-03T11:23:32.468Z,9.29
2023-01-03T11:26:43.157Z,9.30
2023-01-03T11:30:08.994Z,9.32
2023-01-03T11:33:29.048Z,9.33
2023-01-03T11:36:42.244Z,9.35
2023-01-03T11:39:55.657Z,9.40
2023-01-03T11:43:05.378Z,9.45
2023-01-03T11:46:18.993Z,9.49
2023-01-03T11:49:28.580Z,9.56
2023-01-03T11:52:37.371Z,9.62
2023-01-03T11:55:52.672Z,9.65
2023-01-03T11:59:11.405Z,9.67
2023-01-03T12:02:41.690Z,9.69
2023-01-03T12:05:57.161Z,9.68
2023-01-03T12:09:11.637Z,9.65
2023-01-03T12:12:38.957Z,9.63
2023-01-03T12:15:46.602Z,9.61
2023-01-03T12:18:54.423Z,9.61
2023-01-03T12:22:04.072Z,9.61
2023-01-03T12:25:15.453Z,9.57
2023-01-03T12:28:22.601Z,9.54
2023-01-03T12:31:32.229Z,9.52
2023-01-03T12:34:41.124Z,9.49
2023-01-03T12:37:47.060Z,9.47
2023-01-03T12:40:53.941Z,9.45
2023-01-03T12:44:00.855Z,9.44
2023-01-03T12:47:07.130Z,9.42
2023-01-03T12:50:17.691Z,9.40
2023-01-03T12:53:26.891Z,9.37
2023-01-03T12:56:48.509Z,9.36
2023-01-03T12:59:59.292Z,9.34
2023-01-03T13:03:09.132Z,9.32
2023-01-03T13:06:17.569Z,9.31
2023-01-03T13:09:24.343Z,9.29
2023-01-03T13:12:30.468Z,9.26
2023-01-03T13:15:37.481Z,9.23
2023-01-03T13:18:42.215Z,9.19
2023-01-03T13:22:02.989Z,9.16
2023-01-03T13:25:20.884Z,9.12
2023-01-03T13:28:37.611Z,9.08
2023-01-03T13:31:42.434Z,9.04
2023-01-03T13:35:06.929Z,9.00
2023-01-03T13:38:24.845Z,8.96
2023-01-03T13:41:34.161Z,8.90
2023-01-03T13:44:39.751Z,8.85
2023-01-03T13:47:45.559Z,8.82
2023-01-03T13:51:15.835Z,8.80
2023-01-03T13:54:36.152Z,8.78
2023-01-03T13:57:53.638Z,8.76
2023-01-03T14:01:05.566Z,8.74
2023-01-03T14:04:35.888Z,8.72
2023-01-03T14:07:56.599Z,8.72
2023-01-03T14:11:12.918Z,8.73
2023-01-03T14:14:19.176Z,8.70
2023-01-03T14:17:26.715Z,8.67
2023-01-03T14:20:33.519Z,8.63
2023-01-03T14:24:07.956Z,8.59
2023-01-03T14:27:11.503Z,8.53
2023-01-03T14:30:24.230Z,8.47
2023-01-03T14:33:32.867Z,8.40
2023-01-03T14:36:45.642Z,8.32
2023-01-03T14:39:56.299Z,8.28
2023-01-03T14:43:04.489Z,8.21
2023-01-03T14:46:09.896Z,8.16
2023-01-03T14:49:20.759Z,8.12
2023-01-03T14:52:29.825Z,8.10
2023-01-03T14:55:34.977Z,8.07
2023-01-03T14:58:40.513Z,8.05
2023-01-03T15:01:46.044Z,8.05
2023-01-03T15:04:53.582Z,8.06
2023-01-03T15:08:08.289Z,8.08
2023-01-03T15:11:14.283Z,8.09
2023-01-03T15:14:19.130Z,8.11
2023-01-03T15:17:27.228Z,8.12
2023-01-03T15:20:35.410Z,8.13
2023-01-03T15:23:41.251Z,8.13
2023-01-03T15:26:47.180Z,8.11
2023-01-03T15:29:51.606Z,8.11
2023-01-03T15:32:57.980Z,8.13
2023-01-03T15:36:04.313Z,8.14
2023-01-03T15:39:15.912Z,8.12
2023-01-03T15:42:50.250Z,8.11
2023-01-03T15:46:02.966Z,8.07
2023-01-03T15:49:08.033Z,8.03
2023-01-03T15:52:14.560Z,8.00
2023-01-03T15:55:19.239Z,7.96
2023-01-03T15:58:25.201Z,7.92
2023-01-03T16:01:29.815Z,7.87
2023-01-03T16:04:34.520Z,7.81
2023-01-03T16:07:40.342Z,7.78
2023-01-03T16:10:44.883Z,7.74
2023-01-03T16:13:51.382Z,7.70
2023-01-03T16:16:57.050Z,7.69
2023-01-03T16:20:01.871Z,7.68
2023-01-03T16:23:06.548Z,7.68
2023-01-03T16:26:11.025Z,7.70
2023-01-03T16:29:16.095Z,7.71
2023-01-03T16:32:21.434Z,7.71
2023-01-03T16:35:26.320Z,7.72
2023-01-03T16:38:31.798Z,7.70
2023-01-03T16:41:36.332Z,7.71
2023-01-03T16:44:41.673Z,7.70
2023-01-03T16:47:46.388Z,7.65
2023-01-03T16:50:52.949Z,7.63
2023-01-03T16:53:58.172Z,7.63
2023-01-03T16:57:03.015Z,7.62
2023-01-03T17:00:15.127Z,7.64
2023-01-03T17:03:19.812Z,7.63
2023-01-03T17:06:33.509Z,7.63
2023-01-03T17:09:41.811Z,7.63
2023-01-03T17:12:46.360Z,7.63
2023-01-03T17:15:51.067Z,7.63
2023-01-03T17:18:55.966Z,7.62
2023-01-03T17:22:00.525Z,7.61
2023-01-03T17:25:05.391Z,7.59
2023-01-03T17:28:11.681Z,7.56
2023-01-03T17:31:17.683Z,7.54
2023-01-03T17:34:24.468Z,7.52
2023-01-03T17:37:29.042Z,7.50
2023-01-03T17:40:34.626Z,7.48
2023-01-03T17:43:39.240Z,7.48
2023-01-03T17:47:01.423Z,7.46
2023-01-03T17:50:06.312Z,7.46
2023-01-03T17:53:11.798Z,7.46
2023-01-03T17:56:17.928Z,7.45
2023-01-03T17:59:22.447Z,7.45
2023-01-03T18:02:27.389Z,7.45
2023-01-03T18:05:32.510Z,7.44
2023-01-03T18:08:37.107Z,7.43
2023-01-03T18:11:41.643Z,7.39
2023-01-03T18:14:46.446Z,7.39
2023-01-03T18:17:51.256Z,7.38
2023-01-03T18:20:56.163Z,7.37
2023-01-03T18:24:02.599Z,7.35
2023-01-03T18:27:07.202Z,7.30
2023-01-03T18:30:14.510Z,7.25
2023-01-03T18:33:19.018Z,7.21
2023-01-03T18:36:28.000Z,7.17
2023-01-03T18:39:32.929Z,7.15
2023-01-03T18:42:54.719Z,7.14
2023-01-03T18:45:59.372Z,7.14
2023-01-03T18:49:04.075Z,7.10
2023-01-03T18:52:14.423Z,7.06
2023-01-03T18:55:21.297Z,7.05
2023-01-03T18:58:31.765Z,7.03
2023-01-03T19:01:36.458Z,7.00
2023-01-03T19:04:42.933Z,6.94
2023-01-03T19:07:52.905Z,6.86
2023-01-03T19:10:58.780Z,6.77
2023-01-03T19:14:04.223Z,6.67
2023-01-03T19:17:12.418Z,6.59
2023-01-03T19:20:19.540Z,6.53
2023-01-03T19:23:28.219Z,6.46
2023-01-03T19:26:34.787Z,6.38
2023-01-03T19:29:39.712Z,6.30
2023-01-03T19:32:45.049Z,6.23
2023-01-03T19:35:49.826Z,6.18
2023-01-03T19:38:54.425Z,6.16
2023-01-03T19:42:17.856Z,6.13
2023-01-03T19:45:27.623Z,6.10
2023-01-03T19:48:32.217Z,6.06
2023-01-03T19:51:38.443Z,6.02
2023-01-03T19:54:43.092Z,5.96
2023-01-03T19:57:49.090Z,5.93
2023-01-03T20:00:54.370Z,5.91
2023-01-03T20:03:59.406Z,5.87
2023-01-03T20:07:04.097Z,5.84
2023-01-03T20:10:10.596Z,5.86
2023-01-03T20:13:19.054Z,5.84
2023-01-03T20:16:23.981Z,5.79
2023-01-03T20:19:30.794Z,5.73
2023-01-03T20:23:03.786Z,5.67
2023-01-03T20:25:59.877Z,5.62
2023-01-03T20:29:05.505Z,5.59
2023-01-03T20:32:10.129Z,5.57
2023-01-03T20:36:07.089Z,5.52
2023-01-03T20:38:44.840Z,5.48
2023-01-03T20:41:49.343Z,5.44
2023-01-03T20:44:53.879Z,5.39
2023-01-03T20:47:58.750Z,5.41
2023-01-03T20:51:03.214Z,5.37
2023-01-03T20:54:07.957Z,5.33
2023-01-03T20:57:16.354Z,5.29
2023-01-03T21:00:23.106Z,5.24
2023-01-03T21:03:27.730Z,5.21
2023-01-03T21:06:34.489Z,5.19
2023-01-03T21:09:38.967Z,5.20
2023-01-03T21:12:43.626Z,5.21
2023-01-03T21:15:48.672Z,5.21
2023-01-03T21:18:53.301Z,5.21
2023-01-03T21:21:59.378Z,5.21
2023-01-03T21:25:03.890Z,5.22
2023-01-03T21:28:08.407Z,5.22
2023-01-03T21:31:17.995Z,5.21
2023-01-03T21:34:22.681Z,5.18
2023-01-03T21:37:27.227Z,5.17
2023-01-03T21:40:32.611Z,5.17
2023-01-03T21:43:37.198Z,5.16
2023-01-03T21:46:43.297Z,5.14
2023-01-03T21:49:47.790Z,5.15
2023-01-03T21:52:52.314Z,5.14
2023-01-03T21:55:56.862Z,5.15
2023-01-03T21:59:01.398Z,5.15
2023-01-03T22:02:31.954Z,5.14
2023-01-03T22:05:36.615Z,5.14
2023-01-03T22:08:41.234Z,5.12
2023-01-03T22:11:45.796Z,5.11
2023-01-03T22:14:50.393Z,5.11
2023-01-03T22:17:55.391Z,5.08
2023-01-03T22:21:02.440Z,5.04
2023-01-03T22:24:07.702Z,5.01
2023-01-03T22:27:12.277Z,4.97
2023-01-03T22:30:17.408Z,4.96
2023-01-03T22:33:21.935Z,4.97
2023-01-03T22:36:26.489Z,4.96
2023-01-03T22:39:31.034Z,4.96
2023-01-03T22:42:35.723Z,4.93
2023-01-03T22:45:41.196Z,4.90
2023-01-03T22:48:46.111Z,4.88
2023-01-03T22:51:50.616Z,4.85
2023-01-03T22:54:55.065Z,4.82
2023-01-03T22:57:59.614Z,4.80
2023-01-03T23:01:08.219Z,4.80
2023-01-03T23:04:13.064Z,4.80
2023-01-03T23:07:17.788Z,4.77
2023-01-03T23:10:22.258Z,4.73
2023-01-03T23:13:26.954Z,4.71
2023-01-03T23:16:32.444Z,4.69
2023-01-03T23:19:37.195Z,4.66
2023-01-03T23:22:43.893Z,4.65
2023-01-03T23:25:48.396Z,4.65
2023-01-03T23:28:54.909Z,4.61
2023-01-03T23:31:59.517Z,4.60
2023-01-03T23:35:04.108Z,4.57
2023-01-03T23:38:08.631Z,4.52
2023-01-03T23:41:13.289Z,4.48
2023-01-03T23:44:18.804Z,4.47
2023-01-03T23:47:23.452Z,4.43
2023-01-03T23:50:27.998Z,4.41
2023-01-03T23:53:32.497Z,4.39
2023-01-03T23:56:37.036Z,4.37
2023-01-03T23:59:42.397Z,4.35
